MDST

Details ICAO MDST (STI)
Name Santiago Cibao Intl
Region Dominican Republic
Timezone America/Santo_Domingo (UTC-4.0)
Plans Departing 137
Arriving 120
Stats Elevation 563 ft / 172 m (AMSL)
Location 19.406091° -70.604689°
Runways 1
Magnetic Variation 11.170° W
Sunrise 2017-12-11 11:07:47 UTC / 2017-12-11 07:07:47 Local
Sunset 2017-12-11 22:06:39 UTC / 2017-12-11 18:06:39 Local
Advertisement - Login to hide

Runways

ID Width Length Bearing (true) Bearing (mag) Surface Threshold Offset Overrun Length
11 148 ft / 45 m 8,619 ft / 2,627 m 103.07° 114.24° Asphalt 0 ft / 0 m 200 ft / 61 m
29 148 ft / 45 m 8,619 ft / 2,627 m 283.08° 294.25° Asphalt 0 ft / 0 m 200 ft / 61 m

Approach Navaids

Runway Type Ident Frequency Range Bearing (true) Bearing (mag) Slope Elevation
11 Localiser EXP 109.30 MHz 18 nm / 33 km 103.11° 114.28° - 565 ft / 172 m (AMSL)
11 Glidescope EXP 109.30 MHz 10 nm / 19 km 103.08° 114.25° 2.80° 565 ft / 172 m (AMSL)
11 DME EXP 109.30 MHz 18 nm / 33 km - - - 563 ft / 172 m (AMSL)

Map

Weather


0- 5 10 15 20 25 30 35+ Temperature / ° C

Clouds and Precipitation
Forecast for 2017-12-11 12:00 UTC. Updated an hour ago

Ground ~20,000 ft ~40,000 ft Winds

METAR

MDST 110800Z 00000KT 9999 FEW014CB FEW016 20/19 Q1014 CB/E/N

TAF

Not found

Frequencies

Ground 121.90 MHz SANTIAGO GND
Tower 118.30 MHz SANTIAGO TWR
Warning: Do not use this data for real-world aviation or navigation. No guarantee of current accuracy is given.